Time;durP1;ratioP1;P1;durP2;ratioP2;P2;SDS_P1;SDS_P2;PMS_P1;PMS_P2;Temp;Humidity;BMP_temperature;BMP_pressure;BME280_temperature;BME280_humidity;BME280_pressure;Samples;Min_cycle;Max_cycle;Signal;HPM_P1;HPM_P2
2024/03/06 00:01:17;;;;;;;7.53;6.37;;;;;;;7.69;94.74;98182.78;5164611;22;20197;-81
2024/03/06 00:03:39;;;;;;;9.13;6.55;;;;;;;7.65;94.71;98184.72;5164831;22;20519;-80
2024/03/06 00:06:01;;;;;;;7.43;5.97;;;;;;;7.61;94.76;98183.19;5163808;22;20203;-81
2024/03/06 00:08:23;;;;;;;8.15;6.47;;;;;;;7.59;95.59;98181.59;5164343;22;20168;-80
2024/03/06 00:10:47;;;;;;;7.75;6.22;;;;;;;7.59;95.39;98187.66;5188122;22;20187;-80
2024/03/06 00:13:10;;;;;;;8.60;6.38;;;;;;;7.63;96.02;98185.72;5163194;22;20781;-81
2024/03/06 00:15:32;;;;;;;8.60;6.80;;;;;;;7.62;96.75;98187.47;5142964;22;20200;-81
2024/03/06 00:17:54;;;;;;;9.07;7.00;;;;;;;7.62;95.29;98186.63;5164615;22;20590;-82
2024/03/06 00:20:16;;;;;;;7.40;6.38;;;;;;;7.63;96.76;98186.53;5187833;22;20164;-81
2024/03/06 00:22:38;;;;;;;8.60;6.15;;;;;;;7.64;96.05;98183.03;5165355;22;20339;-81
2024/03/06 00:25:01;;;;;;;9.18;6.75;;;;;;;7.62;96.50;98184.03;5164275;22;20813;-82
2024/03/06 00:27:22;;;;;;;8.32;6.57;;;;;;;7.60;95.30;98184.09;5188093;22;20423;-81
2024/03/06 00:29:46;;;;;;;8.80;6.32;;;;;;;7.60;95.59;98191.91;5187244;22;20222;-82
2024/03/06 00:32:08;;;;;;;9.85;6.70;;;;;;;7.60;95.12;98191.06;5187339;22;20239;-80
2024/03/06 00:34:30;;;;;;;11.02;6.43;;;;;;;7.59;95.36;98199.75;5145433;22;20584;-80
2024/03/06 00:36:52;;;;;;;10.63;7.30;;;;;;;7.58;95.30;98200.69;5165724;22;20161;-80
2024/03/06 00:39:14;;;;;;;10.98;7.40;;;;;;;7.60;96.77;98202.28;5145149;22;20521;-80
2024/03/06 00:41:36;;;;;;;8.93;6.82;;;;;;;7.61;96.14;98201.38;5167706;22;20536;-80
2024/03/06 00:43:58;;;;;;;8.70;7.15;;;;;;;7.61;96.52;98197.94;5190656;22;20195;-80
2024/03/06 00:46:22;;;;;;;8.85;6.50;;;;;;;7.60;96.75;98196.25;5166929;22;20168;-81
2024/03/06 00:48:44;;;;;;;8.95;6.65;;;;;;;7.61;95.23;98188.38;5146140;22;20626;-80
2024/03/06 00:51:07;;;;;;;10.20;8.05;;;;;;;7.60;96.53;98193.66;5146535;22;20729;-80
2024/03/06 00:53:29;;;;;;;9.75;7.50;;;;;;;7.57;95.25;98192.06;5145728;22;20184;-81
2024/03/06 00:55:51;;;;;;;9.43;6.43;;;;;;;7.55;95.79;98188.72;5165735;22;20214;-81
2024/03/06 00:58:12;;;;;;;9.93;7.03;;;;;;;7.56;95.67;98193.00;5166466;22;20700;-81
2024/03/06 01:00:34;;;;;;;8.88;6.40;;;;;;;7.57;95.89;98196.44;5166661;22;20208;-81
2024/03/06 01:02:57;;;;;;;10.15;6.25;;;;;;;7.57;97.17;98197.25;5166856;22;20204;-80
2024/03/06 01:05:19;;;;;;;9.45;7.60;;;;;;;7.57;95.86;98196.44;5165451;22;20242;-82
2024/03/06 01:07:41;;;;;;;8.35;6.95;;;;;;;7.55;96.87;98204.28;5166044;22;20225;-81
2024/03/06 01:10:03;;;;;;;8.88;7.05;;;;;;;7.55;95.92;98200.88;5144552;22;20223;-80
2024/03/06 01:12:25;;;;;;;8.68;6.75;;;;;;;7.55;95.47;98200.88;5188458;22;20689;-80
2024/03/06 01:14:47;;;;;;;9.82;6.55;;;;;;;7.53;95.41;98202.69;5165421;22;20172;-81
2024/03/06 01:17:08;;;;;;;8.00;6.15;;;;;;;7.52;95.82;98193.25;5165968;22;20258;-81
2024/03/06 01:19:31;;;;;;;9.75;6.55;;;;;;;7.50;96.21;98200.25;5165857;22;20165;-80
2024/03/06 01:21:52;;;;;;;13.45;6.90;;;;;;;7.48;96.59;98213.31;5166197;22;20161;-80
2024/03/06 01:24:14;;;;;;;9.68;6.55;;;;;;;7.46;96.61;98206.56;5165316;22;20161;-80
2024/03/06 01:26:36;;;;;;;10.13;6.45;;;;;;;7.41;97.11;98208.53;5166249;22;20617;-81
2024/03/06 01:28:58;;;;;;;9.95;6.88;;;;;;;7.38;96.37;98206.16;5166635;22;20233;-82
2024/03/06 01:31:20;;;;;;;10.18;6.72;;;;;;;7.37;97.27;98203.63;5166108;22;20660;-81
2024/03/06 01:33:42;;;;;;;11.07;7.32;;;;;;;7.39;96.57;98210.38;5145060;22;20168;-80
2024/03/06 01:36:06;;;;;;;9.85;7.00;;;;;;;7.39;97.26;98196.59;5188967;22;20164;-80
2024/03/06 01:38:28;;;;;;;8.70;6.28;;;;;;;7.39;96.24;98207.81;5166280;22;20164;-80
2024/03/06 01:40:50;;;;;;;8.18;6.38;;;;;;;7.40;95.82;98208.66;5189059;22;20207;-80
2024/03/06 01:43:20;;;;;;;9.23;6.88;;;;;;;7.40;97.39;98201.69;5166085;22;20215;-80
2024/03/06 01:45:41;;;;;;;10.57;6.13;;;;;;;7.38;95.79;98200.97;5143697;22;20165;-80
2024/03/06 01:48:04;;;;;;;9.07;7.28;;;;;;;7.40;96.96;98209.47;5166216;22;20653;-80
2024/03/06 01:50:26;;;;;;;9.60;6.70;;;;;;;7.44;96.34;98204.97;5189133;22;20167;-80
2024/03/06 01:52:51;;;;;;;10.60;6.90;;;;;;;7.45;95.90;98202.28;5165769;22;20223;-80
2024/03/06 01:55:15;;;;;;;7.43;6.20;;;;;;;7.45;95.65;98199.69;5144221;22;20218;-79
2024/03/06 01:57:39;;;;;;;10.38;6.20;;;;;;;7.45;95.82;98204.88;5165792;22;20189;-81
2024/03/06 02:00:01;;;;;;;5.55;4.93;;;;;;;7.43;95.82;98204.13;5145024;22;20213;-86
2024/03/06 02:02:26;;;;;;;8.13;5.90;;;;;;;7.41;96.38;98202.53;5166611;22;20156;-88
2024/03/06 02:04:48;;;;;;;7.80;5.82;;;;;;;7.39;95.33;98207.81;5166127;22;20209;-88
2024/03/06 02:07:11;;;;;;;8.98;6.13;;;;;;;7.35;96.81;98208.91;5188741;22;20536;-86
2024/03/06 02:09:34;;;;;;;7.15;6.25;;;;;;;7.36;96.12;98207.13;5144898;22;20166;-87
2024/03/06 02:11:56;;;;;;;6.93;5.43;;;;;;;7.37;97.00;98212.25;5165897;22;20825;-84
2024/03/06 02:14:18;;;;;;;10.23;5.90;;;;;;;7.38;95.64;98211.34;5165947;22;20578;-88
2024/03/06 02:16:40;;;;;;;8.65;5.82;;;;;;;7.39;96.00;98204.38;5143691;22;20173;-87
2024/03/06 02:19:03;;;;;;;7.82;5.32;;;;;;;7.40;96.77;98208.66;5164152;22;20251;-86
2024/03/06 02:21:26;;;;;;;8.05;6.28;;;;;;;7.42;96.04;98201.63;5166090;22;20492;-86
2024/03/06 02:23:48;;;;;;;7.68;5.75;;;;;;;7.41;95.75;98202.53;5187255;22;20215;-87
2024/03/06 02:26:11;;;;;;;11.05;5.50;;;;;;;7.41;96.77;98202.53;5164617;22;20169;-88
2024/03/06 02:28:34;;;;;;;7.95;5.82;;;;;;;7.41;96.24;98203.34;5188102;22;20182;-87
2024/03/06 02:30:56;;;;;;;8.95;5.65;;;;;;;7.43;95.78;98198.94;5189064;22;20186;-87
2024/03/06 02:33:19;;;;;;;7.60;5.32;;;;;;;7.41;95.62;98202.53;5165893;22;20656;-88
2024/03/06 02:35:44;;;;;;;8.75;5.45;;;;;;;7.39;96.68;98206.97;5144166;22;20169;-88
2024/03/06 02:38:07;;;;;;;6.95;5.43;;;;;;;7.38;97.09;98211.34;5166230;22;20233;-87
2024/03/06 02:40:29;;;;;;;7.50;5.55;;;;;;;7.35;96.23;98195.06;5188273;22;20247;-86
2024/03/06 02:42:51;;;;;;;6.57;5.38;;;;;;;7.35;96.42;98195.94;5165914;22;20168;-88
2024/03/06 02:45:13;;;;;;;9.77;6.68;;;;;;;7.33;96.90;98197.75;5187361;22;20159;-88
2024/03/06 02:47:35;;;;;;;8.18;5.80;;;;;;;7.32;96.12;98201.28;5165025;22;20884;-87
2024/03/06 02:49:57;;;;;;;10.18;6.97;;;;;;;7.33;95.91;98189.97;5188988;22;20196;-87
2024/03/06 02:52:19;;;;;;;8.88;6.60;;;;;;;7.34;96.35;98190.81;5188909;22;20264;-87
2024/03/06 02:54:43;;;;;;;9.70;6.30;;;;;;;7.34;96.52;98189.06;5144482;22;20177;-88
2024/03/06 02:57:05;;;;;;;9.95;6.53;;;;;;;7.34;97.70;98193.41;5144186;22;20748;-87
2024/03/06 02:59:30;;;;;;;7.80;6.20;;;;;;;7.30;96.99;98203.09;5165313;22;20161;-87
2024/03/06 03:01:51;;;;;;;11.10;6.72;;;;;;;7.27;96.49;98198.06;5165202;22;20219;-85
2024/03/06 03:04:14;;;;;;;9.07;6.90;;;;;;;7.25;96.56;98192.16;5166063;22;20165;-88
2024/03/06 03:06:35;;;;;;;10.30;7.35;;;;;;;7.26;96.51;98198.16;5187318;22;20673;-86
2024/03/06 03:08:57;;;;;;;8.77;6.30;;;;;;;7.28;97.86;98196.34;5165714;22;20238;-87
2024/03/06 03:11:20;;;;;;;12.63;7.20;;;;;;;7.28;97.12;98193.75;5165842;22;20160;-87
2024/03/06 03:13:42;;;;;;;9.48;6.10;;;;;;;7.30;97.61;98189.31;5165797;22;20164;-88
2024/03/06 03:16:05;;;;;;;10.20;6.18;;;;;;;7.28;96.13;98194.56;5143405;22;20669;-87
2024/03/06 03:18:27;;;;;;;10.75;7.15;;;;;;;7.29;98.05;98193.66;5165451;22;20738;-88
2024/03/06 03:20:49;;;;;;;9.50;6.85;;;;;;;7.30;97.73;98200.50;5166142;22;20165;-88
2024/03/06 03:23:15;;;;;;;8.30;6.80;;;;;;;7.29;96.98;98196.25;5166410;22;20212;-87
2024/03/06 03:25:37;;;;;;;12.07;6.65;;;;;;;7.31;97.78;98203.97;5164763;22;20167;-87
2024/03/06 03:28:00;;;;;;;9.55;6.80;;;;;;;7.31;96.99;98206.56;5165945;22;20168;-86
2024/03/06 03:30:22;;;;;;;8.55;6.40;;;;;;;7.33;96.91;98197.75;5187619;22;20165;-87
2024/03/06 03:32:45;;;;;;;8.95;6.68;;;;;;;7.32;97.19;98206.47;5144949;22;20193;-85
2024/03/06 03:35:07;;;;;;;9.82;6.43;;;;;;;7.34;98.22;98202.03;5187747;22;20234;-86
2024/03/06 03:37:29;;;;;;;9.82;6.82;;;;;;;7.35;96.90;98203.72;5188010;22;20159;-87
2024/03/06 03:39:51;;;;;;;7.20;6.00;;;;;;;7.38;96.75;98207.88;5164463;22;20165;-87
2024/03/06 03:42:12;;;;;;;9.38;6.55;;;;;;;7.37;97.89;98209.66;5144225;22;20233;-87
2024/03/06 03:44:36;;;;;;;9.50;6.95;;;;;;;7.37;97.76;98207.06;5188100;22;20456;-88
2024/03/06 03:46:58;;;;;;;9.68;6.70;;;;;;;7.37;96.88;98211.41;5164128;22;20163;-87
2024/03/06 03:49:20;;;;;;;8.60;6.70;;;;;;;7.34;97.04;98215.00;5188672;22;20167;-88
2024/03/06 03:51:42;;;;;;;13.52;6.85;;;;;;;7.33;96.86;98221.09;5166004;22;20229;-88
2024/03/06 03:54:04;;;;;;;9.63;5.75;;;;;;;7.30;98.08;98223.03;5165406;22;20165;-88
2024/03/06 03:56:26;;;;;;;8.82;6.28;;;;;;;7.29;96.77;98221.34;5164339;22;20216;-87
2024/03/06 03:58:47;;;;;;;9.27;6.25;;;;;;;7.29;97.02;98227.38;5165584;22;20169;-87
2024/03/06 04:01:12;;;;;;;8.48;6.90;;;;;;;7.32;96.70;98227.22;5165004;22;20663;-88
2024/03/06 04:03:34;;;;;;;7.43;6.00;;;;;;;7.31;97.14;98230.72;5188362;22;20180;-88
2024/03/06 04:05:56;;;;;;;9.25;6.63;;;;;;;7.32;97.24;98222.03;5187515;22;20666;-88
2024/03/06 04:08:17;;;;;;;9.73;6.93;;;;;;;7.32;97.73;98232.41;5164914;22;20509;-88
2024/03/06 04:10:39;;;;;;;8.07;6.25;;;;;;;7.34;97.41;98232.34;5165209;22;20164;-87
2024/03/06 04:13:03;;;;;;;9.57;6.85;;;;;;;7.32;97.37;98239.34;5187663;22;20305;-87
2024/03/06 04:15:24;;;;;;;8.10;6.18;;;;;;;7.28;96.31;98230.88;5164132;22;20854;-88
2024/03/06 04:17:48;;;;;;;9.25;6.55;;;;;;;7.25;96.64;98235.41;5164857;22;20556;-87
2024/03/06 04:20:12;;;;;;;8.00;6.30;;;;;;;7.23;97.39;98238.09;5165844;22;20167;-80
2024/03/06 04:22:35;;;;;;;7.97;6.50;;;;;;;7.22;98.20;98246.78;5143624;22;20609;-80
2024/03/06 04:24:58;;;;;;;8.70;6.80;;;;;;;7.25;98.06;98253.56;5164617;22;20835;-80
2024/03/06 04:27:20;;;;;;;8.00;5.93;;;;;;;7.27;96.95;98247.34;5143765;22;20165;-81
2024/03/06 04:29:43;;;;;;;10.23;6.65;;;;;;;7.28;98.68;98245.63;5188155;22;20166;-80
2024/03/06 04:32:05;;;;;;;11.65;6.85;;;;;;;7.31;97.62;98250.66;5165540;22;20231;-80
2024/03/06 04:34:28;;;;;;;9.50;7.10;;;;;;;7.34;98.80;98251.31;5142933;22;20217;-80
2024/03/06 04:36:51;;;;;;;9.35;7.30;;;;;;;7.40;99.08;98260.53;5187657;22;20478;-81
2024/03/06 04:39:13;;;;;;;8.25;7.00;;;;;;;7.46;98.92;98261.03;5165301;22;20855;-80
2024/03/06 04:41:37;;;;;;;9.95;7.57;;;;;;;7.49;97.92;98266.91;5143922;22;20266;-80
2024/03/06 04:44:01;;;;;;;8.00;5.88;;;;;;;7.49;99.38;98268.66;5164927;22;20181;-80
2024/03/06 04:46:22;;;;;;;8.38;6.32;;;;;;;7.48;98.92;98275.59;5163871;22;20169;-80
2024/03/06 04:48:46;;;;;;;10.38;7.72;;;;;;;7.48;98.98;98272.16;5143870;22;20165;-80
2024/03/06 04:51:10;;;;;;;10.88;7.15;;;;;;;7.47;99.66;98278.25;5164404;22;20500;-80
2024/03/06 04:53:33;;;;;;;12.32;9.02;;;;;;;7.49;98.67;98282.47;5188835;22;20198;-80
2024/03/06 04:55:55;;;;;;;12.32;9.20;;;;;;;7.48;99.42;98285.13;5163873;22;20208;-81
2024/03/06 04:58:17;;;;;;;11.40;8.85;;;;;;;7.53;99.60;98288.31;5143822;22;20174;-81
2024/03/06 05:00:38;;;;;;;11.60;9.18;;;;;;;7.58;99.28;98294.13;5187882;22;20164;-80
2024/03/06 05:03:00;;;;;;;13.00;8.50;;;;;;;7.61;99.23;98291.38;5165411;22;20204;-81
2024/03/06 05:05:40;;;;;;;14.07;8.93;;;;;;;7.65;99.34;98293.72;5187572;22;20655;-81
2024/03/06 05:08:21;;;;;;;10.02;8.68;;;;;;;7.70;99.31;98298.66;5165042;22;20168;-81
2024/03/06 05:11:01;;;;;;;13.65;9.27;;;;;;;7.73;100.00;98296.72;5144211;22;20169;-82
2024/03/06 05:13:40;;;;;;;11.60;9.55;;;;;;;7.76;100.00;98299.16;5143028;22;20597;-81
2024/03/06 05:16:23;;;;;;;62.80;35.10;;;;;;;7.80;99.76;98307.59;5142821;22;20162;-81
2024/03/06 05:19:02;;;;;;;141.40;66.60;;;;;;;7.81;100.00;98309.28;5165032;22;20161;-80
2024/03/06 05:21:42;;;;;;;22.50;14.50;;;;;;;7.83;99.14;98307.44;5166610;22;20239;-81
2024/03/06 05:24:23;;;;;;;9.52;7.60;;;;;;;7.77;98.61;98316.41;5167181;22;20161;-81
2024/03/06 05:27:03;;;;;;;9.05;7.30;;;;;;;7.71;99.75;98311.56;5166836;22;20243;-81
2024/03/06 05:29:43;;;;;;;9.48;7.40;;;;;;;7.67;98.25;98306.59;5166634;22;20283;-81
2024/03/06 05:32:22;;;;;;;11.75;7.03;;;;;;;7.68;99.62;98316.91;5166880;22;20168;-80
2024/03/06 05:35:02;;;;;;;8.52;7.15;;;;;;;7.67;99.08;98317.00;5189235;22;20163;-81
2024/03/06 05:37:42;;;;;;;12.02;7.22;;;;;;;7.69;99.21;98325.53;5188481;22;20233;-81
2024/03/06 05:40:22;;;;;;;14.00;8.60;;;;;;;7.68;100.00;98322.09;5145070;22;20225;-82
2024/03/06 05:43:02;;;;;;;10.80;7.10;;;;;;;7.69;98.72;98325.53;5166226;22;20167;-81
2024/03/06 05:45:41;;;;;;;10.55;7.95;;;;;;;7.66;98.54;98318.72;5143221;22;20207;-83
2024/03/06 05:48:21;;;;;;;9.75;7.75;;;;;;;7.64;98.90;98328.38;5165995;22;20165;-84
2024/03/06 05:51:00;;;;;;;9.95;7.50;;;;;;;7.64;99.45;98325.75;5145484;22;20210;-83
2024/03/06 05:53:42;;;;;;;8.75;7.60;;;;;;;7.62;100.00;98335.41;5144842;22;20585;-83
2024/03/06 05:56:22;;;;;;;10.93;7.35;;;;;;;7.57;100.00;98334.78;5164373;22;20685;-83
2024/03/06 05:59:04;;;;;;;11.23;9.05;;;;;;;7.57;99.40;98339.97;5144733;22;20168;-84
2024/03/06 06:01:26;;;;;;;11.77;8.57;;;;;;;7.59;100.00;98332.97;5147173;22;20165;-83
2024/03/06 06:03:48;;;;;;;13.73;8.63;;;;;;;7.62;100.00;98343.19;5148354;22;20189;-84
2024/03/06 06:06:10;;;;;;;12.02;9.77;;;;;;;7.62;100.00;98350.13;5147378;22;20205;-84
2024/03/06 06:08:32;;;;;;;16.27;10.25;;;;;;;7.66;99.70;98349.03;5192637;22;20234;-83
2024/03/06 06:10:54;;;;;;;15.60;10.35;;;;;;;7.67;99.73;98350.72;5145839;22;20209;-85
2024/03/06 06:13:18;;;;;;;13.90;9.88;;;;;;;7.70;100.00;98358.34;5145006;22;20165;-81
2024/03/06 06:15:40;;;;;;;15.35;10.50;;;;;;;7.72;99.90;98359.09;5168851;22;20574;-82
2024/03/06 06:18:03;;;;;;;13.20;10.50;;;;;;;7.74;100.00;98357.25;5166306;22;20691;-83
2024/03/06 06:20:25;;;;;;;13.65;9.82;;;;;;;7.78;99.87;98363.97;5165970;22;20235;-84
2024/03/06 06:22:47;;;;;;;14.73;10.52;;;;;;;7.79;100.00;98368.25;5166204;22;20672;-83
2024/03/06 06:25:09;;;;;;;12.73;9.60;;;;;;;7.80;100.00;98375.94;5141799;22;20164;-82
2024/03/06 06:27:33;;;;;;;14.60;10.68;;;;;;;7.85;99.73;98380.88;5188484;22;20226;-83
2024/03/06 06:29:57;;;;;;;12.20;9.40;;;;;;;7.88;100.00;98378.97;5165872;22;20176;-83
2024/03/06 06:32:19;;;;;;;12.75;9.75;;;;;;;7.90;100.00;98379.72;5164663;22;20168;-81
2024/03/06 06:34:41;;;;;;;13.35;10.20;;;;;;;7.93;100.00;98384.75;5165320;22;20241;-83
2024/03/06 06:37:03;;;;;;;13.40;9.52;;;;;;;7.93;100.00;98391.72;5144657;22;20214;-84
2024/03/06 06:39:25;;;;;;;10.73;8.95;;;;;;;7.93;100.00;98391.72;5145629;22;20220;-83
2024/03/06 06:41:47;;;;;;;12.85;10.45;;;;;;;7.94;100.00;98391.63;5165371;22;20417;-83
2024/03/06 06:44:09;;;;;;;13.27;10.43;;;;;;;7.95;100.00;98395.91;5188507;22;20631;-85
2024/03/06 06:46:33;;;;;;;11.65;8.75;;;;;;;7.96;100.00;98396.75;5143316;22;20228;-84
2024/03/06 06:48:55;;;;;;;11.20;9.00;;;;;;;7.98;100.00;98398.31;5188103;22;20191;-85
2024/03/06 06:51:18;;;;;;;11.10;8.45;;;;;;;7.99;100.00;98400.84;5145208;22;20173;-84
2024/03/06 06:53:41;;;;;;;11.52;8.50;;;;;;;8.01;100.00;98396.44;5144399;22;20265;-85
2024/03/06 06:56:04;;;;;;;12.25;8.40;;;;;;;8.04;100.00;98403.19;5188817;22;20164;-84
2024/03/06 06:58:27;;;;;;;13.82;9.65;;;;;;;8.03;100.00;98394.56;5144526;22;20165;-84
2024/03/06 07:00:49;;;;;;;10.88;8.27;;;;;;;8.07;100.00;98403.03;5166162;22;20242;-84
2024/03/06 07:03:12;;;;;;;16.02;9.20;;;;;;;8.09;100.00;98402.03;5145317;22;20261;-84
2024/03/06 07:05:34;;;;;;;11.45;9.27;;;;;;;8.11;99.91;98397.63;5165278;22;20272;-84
2024/03/06 07:07:56;;;;;;;13.60;9.50;;;;;;;8.13;99.74;98407.94;5166424;22;20173;-84
2024/03/06 07:10:19;;;;;;;11.05;8.77;;;;;;;8.11;100.00;98413.22;5189546;22;20164;-84
2024/03/06 07:12:40;;;;;;;11.52;9.38;;;;;;;8.08;100.00;98408.16;5144349;22;20161;-83
2024/03/06 07:15:05;;;;;;;14.40;9.75;;;;;;;8.06;100.00;98410.00;5164799;22;20857;-83
2024/03/06 07:17:26;;;;;;;15.68;9.15;;;;;;;8.04;100.00;98411.00;5165541;22;20168;-83
2024/03/06 07:19:50;;;;;;;11.07;9.23;;;;;;;8.07;99.94;98413.41;5144617;22;20642;-83
2024/03/06 07:22:12;;;;;;;11.57;10.38;;;;;;;8.10;100.00;98411.53;5166314;22;20180;-83
2024/03/06 07:24:35;;;;;;;15.50;12.20;;;;;;;8.14;100.00;98415.66;5187953;22;20164;-83
2024/03/06 07:27:01;;;;;;;12.80;10.10;;;;;;;8.15;100.00;98412.13;5143286;22;20173;-83
2024/03/06 07:29:22;;;;;;;12.05;10.02;;;;;;;8.18;99.89;98409.38;5144868;22;20221;-83
2024/03/06 07:31:44;;;;;;;15.57;11.68;;;;;;;8.20;100.00;98415.31;5144327;22;20231;-83
2024/03/06 07:34:08;;;;;;;12.55;10.80;;;;;;;8.24;100.00;98416.84;5144229;22;20594;-83
2024/03/06 07:36:31;;;;;;;16.50;11.90;;;;;;;8.28;100.00;98420.94;5143810;22;20660;-83
2024/03/06 07:38:54;;;;;;;15.77;12.80;;;;;;;8.32;100.00;98419.84;5144455;22;20169;-82
2024/03/06 07:41:16;;;;;;;15.20;13.45;;;;;;;8.38;100.00;98426.50;5165554;22;20272;-84
2024/03/06 07:43:38;;;;;;;16.67;13.18;;;;;;;8.42;100.00;98428.84;5165476;22;20685;-83
2024/03/06 07:46:00;;;;;;;17.27;13.38;;;;;;;8.45;100.00;98429.50;5140906;22;20280;-84
2024/03/06 07:48:22;;;;;;;17.55;13.93;;;;;;;8.52;100.00;98435.19;5162780;22;20168;-85
2024/03/06 07:50:44;;;;;;;17.13;12.73;;;;;;;8.54;100.00;98435.97;5142917;22;20161;-89
2024/03/06 07:53:08;;;;;;;16.13;12.75;;;;;;;8.59;100.00;98442.56;5188248;22;20557;-89
2024/03/06 07:55:29;;;;;;;16.98;14.05;;;;;;;8.63;100.00;98438.03;5143798;22;20548;-88
2024/03/06 07:57:51;;;;;;;15.88;12.73;;;;;;;8.67;100.00;98434.34;5165326;22;20560;-88
2024/03/06 08:00:15;;;;;;;19.77;14.65;;;;;;;8.70;100.00;98444.59;5144539;22;20193;-87
2024/03/06 08:02:39;;;;;;;20.05;15.25;;;;;;;8.74;100.00;98451.31;5144941;22;20160;-88
2024/03/06 08:05:01;;;;;;;18.88;14.40;;;;;;;8.74;100.00;98444.34;5164186;22;20235;-89
2024/03/06 08:07:23;;;;;;;18.02;14.93;;;;;;;8.77;100.00;98445.94;5143505;22;20725;-87
2024/03/06 08:09:46;;;;;;;19.33;15.65;;;;;;;8.79;100.00;98446.69;5142094;22;20164;-86
2024/03/06 08:12:08;;;;;;;17.63;13.85;;;;;;;8.83;100.00;98456.00;5162650;22;20156;-86
2024/03/06 08:14:30;;;;;;;19.42;14.40;;;;;;;8.86;100.00;98455.81;5165331;22;20168;-87
2024/03/06 08:16:52;;;;;;;17.58;14.23;;;;;;;8.89;100.00;98453.06;5143825;22;20846;-87
2024/03/06 08:19:14;;;;;;;18.77;15.32;;;;;;;8.92;100.00;98455.50;5144359;22;20168;-87
2024/03/06 08:21:37;;;;;;;21.92;15.23;;;;;;;8.95;100.00;98449.16;5144336;22;20209;-87
2024/03/06 08:23:59;;;;;;;21.17;15.98;;;;;;;9.00;100.00;98449.75;5188430;22;20160;-86
2024/03/06 08:26:23;;;;;;;18.40;15.00;;;;;;;9.04;100.00;98451.25;5142794;22;20221;-86
2024/03/06 08:28:45;;;;;;;20.42;15.63;;;;;;;9.08;100.00;98459.72;5142128;22;20531;-86
2024/03/06 08:31:08;;;;;;;19.95;15.63;;;;;;;9.09;100.00;98453.59;5143984;22;20645;-87
2024/03/06 08:33:30;;;;;;;22.40;16.20;;;;;;;9.13;100.00;98463.75;5164929;22;20172;-86
2024/03/06 08:35:49;;;;;;;20.42;15.60;;;;;;;9.12;100.00;98459.47;5163544;22;20563;-87
2024/03/06 08:38:11;;;;;;;20.20;15.80;;;;;;;9.14;100.00;98465.44;5165021;22;20191;-87
2024/03/06 08:40:35;;;;;;;21.17;16.75;;;;;;;9.13;100.00;98460.31;5143976;22;20691;-87
2024/03/06 08:42:58;;;;;;;21.25;16.13;;;;;;;9.10;100.00;98471.72;5187021;22;20212;-87
2024/03/06 08:45:20;;;;;;;19.60;15.53;;;;;;;9.09;100.00;98466.59;5163532;22;20169;-87
2024/03/06 08:47:43;;;;;;;20.45;15.77;;;;;;;9.09;100.00;98472.63;5164606;22;20595;-87
2024/03/06 08:50:07;;;;;;;19.95;15.80;;;;;;;9.07;99.90;98460.66;5143882;22;20169;-87
2024/03/06 08:52:30;;;;;;;18.15;15.52;;;;;;;9.11;100.00;98462.16;5143680;22;20165;-86
2024/03/06 08:54:53;;;;;;;21.40;16.60;;;;;;;9.13;100.00;98476.75;5143111;22;20169;-87
2024/03/06 08:57:15;;;;;;;20.58;15.23;;;;;;;9.15;100.00;98476.66;5144623;22;20165;-87
2024/03/06 08:59:39;;;;;;;21.35;16.15;;;;;;;9.19;99.86;98483.38;5145633;22;20193;-83
2024/03/06 09:02:13;;;;;;;21.43;15.77;;;;;;;9.19;100.00;98486.00;5144434;22;20222;-83
2024/03/06 09:04:35;;;;;;;18.92;15.30;;;;;;;9.17;100.00;98491.28;5145010;22;20560;-84
2024/03/06 09:06:57;;;;;;;25.38;15.70;;;;;;;9.19;100.00;98489.41;5144650;22;20205;-83
2024/03/06 09:09:20;;;;;;;20.40;15.13;;;;;;;9.22;100.00;98488.41;5144337;22;20165;-83
2024/03/06 09:11:42;;;;;;;21.92;15.30;;;;;;;9.21;100.00;98490.16;5167052;22;20274;-84
2024/03/06 09:14:04;;;;;;;20.75;15.55;;;;;;;9.23;100.00;98492.69;5167225;22;20168;-83
2024/03/06 09:16:28;;;;;;;20.67;15.38;;;;;;;9.25;100.00;98493.44;5144414;22;20273;-83
2024/03/06 09:18:50;;;;;;;18.67;15.50;;;;;;;9.26;100.00;98492.50;5165681;22;20641;-83
2024/03/06 09:21:12;;;;;;;20.52;15.63;;;;;;;9.24;99.86;98495.19;5163381;22;20214;-83
2024/03/06 09:23:34;;;;;;;18.75;14.18;;;;;;;9.26;100.00;98495.97;5145853;22;20221;-84
2024/03/06 09:25:56;;;;;;;19.02;15.50;;;;;;;9.24;99.77;98497.78;5144593;22;20165;-83
2024/03/06 09:28:18;;;;;;;18.52;14.52;;;;;;;9.25;100.00;98496.88;5144989;22;20170;-85
2024/03/06 09:30:41;;;;;;;19.73;14.27;;;;;;;9.25;100.00;98498.66;5144507;22;20161;-83
2024/03/06 09:33:04;;;;;;;19.83;14.95;;;;;;;9.26;100.00;98508.13;5144636;22;20838;-85
2024/03/06 09:35:26;;;;;;;19.02;15.88;;;;;;;9.27;100.00;98507.19;5164907;22;20280;-85
2024/03/06 09:37:52;;;;;;;16.90;14.02;;;;;;;9.30;100.00;98504.44;5165504;22;20161;-85
2024/03/06 09:40:21;;;;;;;17.38;14.13;;;;;;;9.31;100.00;98506.94;5143769;22;20794;-85
2024/03/06 09:42:44;;;;;;;18.98;14.63;;;;;;;9.33;100.00;98510.28;5163430;22;20161;-85
2024/03/06 09:45:07;;;;;;;17.88;14.48;;;;;;;9.33;99.95;98509.47;5187570;22;20495;-86
2024/03/06 09:47:31;;;;;;;20.35;15.50;;;;;;;9.35;100.00;98513.66;5143774;22;20648;-85
2024/03/06 09:49:57;;;;;;;22.75;15.00;;;;;;;9.38;100.00;98518.66;5165619;22;20172;-85
2024/03/06 09:52:19;;;;;;;18.38;14.35;;;;;;;9.42;100.00;98518.41;5145302;22;20224;-85
2024/03/06 09:54:42;;;;;;;17.80;14.73;;;;;;;9.42;100.00;98520.19;5145169;22;20166;-85
2024/03/06 09:57:06;;;;;;;18.92;14.90;;;;;;;9.41;100.00;98519.34;5188549;22;20191;-86
2024/03/06 09:59:28;;;;;;;17.02;14.23;;;;;;;9.44;100.00;98518.31;5145543;22;20673;-85
2024/03/06 10:01:55;;;;;;;17.80;13.80;;;;;;;9.47;100.00;98520.75;5190288;22;20157;-85
2024/03/06 10:04:21;;;;;;;20.38;14.15;;;;;;;9.53;100.00;98528.22;5166969;22;20574;-85
2024/03/06 10:06:45;;;;;;;20.27;15.50;;;;;;;9.54;100.00;98522.09;5144154;22;20674;-86
2024/03/06 10:09:08;;;;;;;20.30;15.80;;;;;;;9.59;100.00;98522.66;5166519;22;20218;-89
2024/03/06 10:11:31;;;;;;;18.70;14.13;;;;;;;9.60;100.00;98527.78;5189523;22;20574;-89
2024/03/06 10:13:55;;;;;;;17.13;13.57;;;;;;;9.66;100.00;98530.03;5189216;22;20163;-90
2024/03/06 10:16:17;;;;;;;17.02;14.10;;;;;;;9.73;100.00;98527.94;5163752;22;20578;-89
2024/03/06 10:18:39;;;;;;;22.67;15.93;;;;;;;9.79;100.00;98528.41;5143642;22;20905;-89
2024/03/06 10:21:01;;;;;;;18.10;14.07;;;;;;;9.82;100.00;98536.03;5187346;22;20159;-90
2024/03/06 10:23:24;;;;;;;20.80;15.20;;;;;;;9.89;100.00;98532.97;5165410;22;20520;-90
2024/03/06 10:25:50;;;;;;;18.25;13.88;;;;;;;9.93;100.00;98533.63;5145195;22;20246;-90
2024/03/06 10:28:13;;;;;;;20.27;15.33;;;;;;;10.02;100.00;98533.13;5144953;22;20213;-89
2024/03/06 10:30:35;;;;;;;21.30;14.07;;;;;;;10.10;100.00;98526.53;5165385;22;20520;-89
2024/03/06 10:32:59;;;;;;;17.90;12.97;;;;;;;10.19;100.00;98531.19;5146023;22;21115;-89
2024/03/06 10:35:22;;;;;;;19.07;13.73;;;;;;;10.24;100.00;98531.78;5166049;22;20599;-90
2024/03/06 10:37:44;;;;;;;20.27;14.30;;;;;;;10.23;99.72;98532.69;5166545;22;20506;-89
2024/03/06 10:40:13;;;;;;;22.37;14.67;;;;;;;10.22;99.36;98531.00;5168272;22;20524;-89
2024/03/06 10:42:36;;;;;;;24.38;14.77;;;;;;;10.23;99.18;98526.66;5145000;22;20532;-90
2024/03/06 10:45:00;;;;;;;23.37;15.83;;;;;;;10.29;98.73;98523.66;5189438;22;20163;-89
2024/03/06 10:47:22;;;;;;;16.93;12.23;;;;;;;10.33;99.71;98528.59;5189768;22;20516;-89
2024/03/06 10:49:47;;;;;;;22.67;13.63;;;;;;;10.34;98.78;98525.06;5166872;22;20881;-89
2024/03/06 10:52:09;;;;;;;19.70;12.97;;;;;;;10.30;97.65;98530.53;5145799;22;20513;-89
2024/03/06 10:54:34;;;;;;;16.33;12.67;;;;;;;10.29;98.96;98527.09;5189555;22;20519;-89
2024/03/06 10:56:57;;;;;;;17.53;13.80;;;;;;;10.31;98.36;98527.00;5166578;22;20732;-89
2024/03/06 10:59:21;;;;;;;17.50;11.50;;;;;;;10.33;98.95;98528.59;5167443;22;20584;-89
2024/03/06 11:01:45;;;;;;;16.43;12.40;;;;;;;10.34;97.76;98525.06;5166928;22;20559;-89
2024/03/06 11:04:07;;;;;;;17.90;12.03;;;;;;;10.35;96.61;98531.94;5145202;22;20532;-89
2024/03/06 11:06:29;;;;;;;15.20;11.25;;;;;;;10.38;97.41;98526.56;5144098;22;21233;-89
2024/03/06 11:08:51;;;;;;;16.30;11.70;;;;;;;10.28;95.88;98525.41;5167131;22;20673;-88
2024/03/06 11:11:20;;;;;;;15.38;11.98;;;;;;;10.28;96.92;98528.03;5166324;22;20700;-89
2024/03/06 11:13:44;;;;;;;15.90;11.80;;;;;;;10.32;97.39;98525.13;5144568;22;20170;-89